createdAt,value
2022-12-04T00:02:58.036Z,-1.5
2022-12-04T00:08:04.572Z,-1.5
2022-12-04T00:13:10.412Z,-1.5
2022-12-04T00:18:16.986Z,-1.5
2022-12-04T00:23:23.579Z,-1.5
2022-12-04T00:28:30.147Z,-1.5
2022-12-04T00:33:36.714Z,-1.5
2022-12-04T00:38:43.362Z,-1.5
2022-12-04T00:43:49.913Z,-1.5
2022-12-04T00:48:56.451Z,-1.5
2022-12-04T00:54:03.040Z,-1.5
2022-12-04T00:59:09.598Z,-1.5
2022-12-04T01:04:16.169Z,-1.5
2022-12-04T01:09:22.805Z,-1.5
2022-12-04T01:14:29.310Z,-1.5
2022-12-04T01:19:35.268Z,-1.5
2022-12-04T01:24:41.746Z,-1.4
2022-12-04T01:29:48.302Z,-1.5
2022-12-04T01:34:54.952Z,-1.5
2022-12-04T01:40:01.462Z,-1.5
2022-12-04T01:45:08.065Z,-1.5
2022-12-04T01:50:14.621Z,-1.5
2022-12-04T01:55:21.311Z,-1.5
2022-12-04T02:00:27.756Z,-1.5
2022-12-04T02:05:34.359Z,-1.5
2022-12-04T02:10:40.928Z,-1.5
2022-12-04T02:15:47.543Z,-1.5
2022-12-04T02:20:54.069Z,-1.5
2022-12-04T02:25:59.894Z,-1.5
2022-12-04T02:31:06.483Z,-1.4
2022-12-04T02:36:13.083Z,-1.4
2022-12-04T02:41:19.654Z,-1.5
2022-12-04T02:46:26.201Z,-1.5
2022-12-04T02:51:32.774Z,-1.5
2022-12-04T02:56:39.362Z,-1.4
2022-12-04T03:01:46.019Z,-1.4
2022-12-04T03:06:52.507Z,-1.4
2022-12-04T03:11:59.077Z,-1.4
2022-12-04T03:17:05.657Z,-1.4
2022-12-04T03:22:12.321Z,-1.4
2022-12-04T03:27:18.806Z,-1.4
2022-12-04T03:32:24.749Z,-1.4
2022-12-04T03:37:31.222Z,-1.4
2022-12-04T03:42:37.801Z,-1.4
2022-12-04T03:47:44.377Z,-1.4
2022-12-04T03:52:50.964Z,-1.4
2022-12-04T03:57:57.555Z,-1.4
2022-12-04T04:03:04.098Z,-1.4
2022-12-04T04:08:10.677Z,-1.4
2022-12-04T04:13:17.253Z,-1.4
2022-12-04T04:18:23.880Z,-1.4
2022-12-04T04:23:30.396Z,-1.4
2022-12-04T04:28:36.994Z,-1.4
2022-12-04T04:33:43.556Z,-1.4
2022-12-04T04:38:49.424Z,-1.4
2022-12-04T04:43:55.985Z,-1.4
2022-12-04T04:49:02.561Z,-1.4
2022-12-04T04:54:09.137Z,-1.4
2022-12-04T04:59:15.725Z,-1.3
2022-12-04T05:04:22.358Z,-1.3
2022-12-04T05:09:28.941Z,-1.3
2022-12-04T05:14:35.422Z,-1.3
2022-12-04T05:19:42.029Z,-1.3
2022-12-04T05:24:48.584Z,-1.3
2022-12-04T05:29:55.203Z,-1.3
2022-12-04T05:35:01.756Z,-1.3
2022-12-04T05:40:08.315Z,-1.3
2022-12-04T05:45:14.169Z,-1.3
2022-12-04T05:50:20.783Z,-1.2
2022-12-04T05:55:27.383Z,-1.2
2022-12-04T06:00:33.971Z,-1.2
2022-12-04T06:05:40.520Z,-1.2
2022-12-04T06:10:47.102Z,-1.2
2022-12-04T06:15:53.680Z,-1.2
2022-12-04T06:21:00.264Z,-1.2
2022-12-04T06:26:06.833Z,-1.2
2022-12-04T06:31:13.413Z,-1.2
2022-12-04T06:36:20.034Z,-1.2
2022-12-04T06:41:26.614Z,-1.2
2022-12-04T06:46:33.149Z,-1.1
2022-12-04T06:51:39.037Z,-1.1
2022-12-04T06:56:45.537Z,-1.1
2022-12-04T07:01:52.219Z,-1.1
2022-12-04T07:06:58.830Z,-1.1
2022-12-04T07:12:05.285Z,-1.1
2022-12-04T07:17:12.004Z,-1
2022-12-04T07:22:18.432Z,-1
2022-12-04T07:27:25.005Z,-1
2022-12-04T07:32:31.575Z,-1
2022-12-04T07:37:38.158Z,-1
2022-12-04T07:42:44.738Z,-1
2022-12-04T07:47:51.357Z,-1
2022-12-04T07:52:57.868Z,-0.9
2022-12-04T07:58:03.793Z,-0.9
2022-12-04T08:03:10.462Z,-0.9
2022-12-04T08:08:16.866Z,-0.9
2022-12-04T08:13:23.459Z,-0.8
2022-12-04T08:18:30.028Z,-0.8
2022-12-04T08:23:36.596Z,-0.8
2022-12-04T08:28:43.198Z,-0.8
2022-12-04T08:33:49.767Z,-0.8
2022-12-04T08:38:56.475Z,-0.8
2022-12-04T08:44:03.073Z,-0.8
2022-12-04T08:49:09.560Z,-0.7
2022-12-04T08:54:16.192Z,-0.7
2022-12-04T08:59:22.671Z,-0.7
2022-12-04T09:04:28.630Z,-0.7
2022-12-04T09:09:35.104Z,-0.7
2022-12-04T09:14:41.617Z,-0.6
2022-12-04T09:19:48.211Z,-0.6
2022-12-04T09:24:54.849Z,-0.6
2022-12-04T09:30:01.467Z,-0.6
2022-12-04T09:35:07.960Z,-0.6
2022-12-04T09:40:14.525Z,-0.5
2022-12-04T09:45:21.176Z,-0.5
2022-12-04T09:50:27.640Z,-0.5
2022-12-04T09:55:34.391Z,-0.5
2022-12-04T10:00:40.832Z,-0.5
2022-12-04T10:05:47.370Z,-0.4
2022-12-04T10:10:53.207Z,-0.4
2022-12-04T10:15:59.774Z,-0.4
2022-12-04T10:21:06.344Z,-0.4
2022-12-04T10:26:12.950Z,-0.3
2022-12-04T10:31:19.503Z,-0.3
2022-12-04T10:36:26.198Z,-0.3
2022-12-04T10:41:32.651Z,-0.2
2022-12-04T10:46:39.255Z,-0.2
2022-12-04T10:51:45.941Z,-0.2
2022-12-04T10:56:52.380Z,-0.1
2022-12-04T11:01:58.957Z,-0.2
2022-12-04T11:07:05.521Z,-0.2
2022-12-04T11:12:12.174Z,-0.2
2022-12-04T11:17:17.953Z,-0.1
2022-12-04T11:22:24.509Z,-0.2
2022-12-04T11:27:31.081Z,-0.3
2022-12-04T11:32:37.782Z,-0.3
2022-12-04T11:37:44.339Z,-0.2
2022-12-04T11:42:50.829Z,-0.2
2022-12-04T11:47:57.389Z,-0.2
2022-12-04T11:53:04.015Z,-0.2
2022-12-04T11:58:10.537Z,-0.2
2022-12-04T12:03:17.128Z,-0.2
2022-12-04T12:08:23.906Z,-0.2
2022-12-04T12:13:30.521Z,-0.2
2022-12-04T12:18:36.972Z,-0.2
2022-12-04T12:23:42.678Z,-0.1
2022-12-04T12:28:49.245Z,-0.1
2022-12-04T12:33:55.821Z,0
2022-12-04T12:39:02.537Z,0
2022-12-04T12:44:09.225Z,0
2022-12-04T12:49:15.542Z,-0.1
2022-12-04T12:54:22.295Z,-0.1
2022-12-04T12:59:28.769Z,-0.1
2022-12-04T13:04:35.439Z,-0.1
2022-12-04T13:09:41.891Z,-0.1
2022-12-04T13:14:48.418Z,-0.1
2022-12-04T13:19:55.109Z,-0.2
2022-12-04T13:25:01.731Z,-0.2
2022-12-04T13:30:07.516Z,-0.2
2022-12-04T13:35:14.117Z,-0.2
2022-12-04T13:40:20.547Z,-0.2
2022-12-04T13:45:27.271Z,-0.2
2022-12-04T13:50:33.749Z,-0.2
2022-12-04T13:55:40.292Z,-0.2
2022-12-04T14:00:47.069Z,-0.2
2022-12-04T14:05:53.448Z,-0.2
2022-12-04T14:11:00.029Z,-0.2
2022-12-04T14:16:06.625Z,-0.2
2022-12-04T14:21:13.199Z,-0.1
2022-12-04T14:26:19.750Z,-0.1
2022-12-04T14:31:26.324Z,-0.1
2022-12-04T14:36:32.163Z,-0.1
2022-12-04T14:41:38.738Z,-0.1
2022-12-04T14:46:45.318Z,-0.1
2022-12-04T14:51:51.943Z,-0.1
2022-12-04T14:56:58.513Z,-0.1
2022-12-04T15:02:05.060Z,-0.1
2022-12-04T15:07:11.616Z,-0.1
2022-12-04T15:12:18.218Z,-0.1
2022-12-04T15:17:24.766Z,-0.1
2022-12-04T15:22:31.323Z,-0.1
2022-12-04T15:27:37.951Z,-0.1
2022-12-04T15:32:44.487Z,-0.1
2022-12-04T15:37:51.056Z,-0.1
2022-12-04T15:42:56.904Z,-0.1
2022-12-04T15:48:03.483Z,-0.1
2022-12-04T15:53:10.143Z,-0.1
2022-12-04T15:58:16.617Z,-0.1
2022-12-04T16:03:23.209Z,-0.1
2022-12-04T16:08:29.777Z,-0.1
2022-12-04T16:13:36.354Z,-0.1
2022-12-04T16:18:42.938Z,0
2022-12-04T16:23:49.503Z,0
2022-12-04T16:28:56.073Z,0
2022-12-04T16:34:02.657Z,0
2022-12-04T16:39:09.213Z,0
2022-12-04T16:44:15.803Z,0
2022-12-04T16:49:22.372Z,0
2022-12-04T16:54:28.939Z,0
2022-12-04T16:59:34.842Z,0
2022-12-04T17:04:41.378Z,0
2022-12-04T17:09:47.934Z,0
2022-12-04T17:14:54.509Z,0
2022-12-04T17:20:00.375Z,0
2022-12-04T17:25:06.926Z,0
2022-12-04T17:40:26.657Z,0
2022-12-04T17:45:33.236Z,0
2022-12-04T17:50:39.837Z,0
2022-12-04T17:55:46.373Z,0
2022-12-04T18:05:59.540Z,0
2022-12-04T18:11:06.137Z,0
2022-12-04T18:26:25.127Z,0.1
2022-12-04T18:31:31.008Z,0.1
2022-12-04T18:36:37.595Z,0.1
2022-12-04T18:41:44.157Z,0.1
2022-12-04T18:51:56.582Z,0.1
2022-12-04T18:57:03.154Z,0.1
2022-12-04T19:12:22.879Z,0.1
2022-12-04T19:17:29.458Z,0.1
2022-12-04T19:27:42.630Z,0.2
2022-12-04T19:37:55.763Z,0.2
2022-12-04T19:43:02.345Z,0.2
2022-12-04T19:48:08.911Z,0.2
2022-12-04T19:53:15.484Z,0.2
2022-12-04T19:58:22.060Z,0.2
2022-12-04T20:03:27.944Z,0.2
2022-12-04T20:08:34.620Z,0.3
2022-12-04T20:13:41.084Z,0.3
2022-12-04T20:23:54.251Z,0.3
2022-12-04T20:29:00.817Z,0.3
2022-12-04T20:34:07.379Z,0.4
2022-12-04T20:44:20.536Z,0.4
2022-12-04T20:49:27.117Z,0.4
2022-12-04T20:54:33.691Z,0.4
2022-12-04T20:59:40.258Z,0.4
2022-12-04T21:04:46.092Z,0.4
2022-12-04T21:09:52.658Z,0.4
2022-12-04T21:14:59.247Z,0.4
2022-12-04T21:20:05.821Z,0.4
2022-12-04T21:25:12.392Z,0.4
2022-12-04T21:30:18.977Z,0.4
2022-12-04T21:35:25.542Z,0.4
2022-12-04T21:40:32.127Z,0.5
2022-12-04T21:45:38.676Z,0.5
2022-12-04T21:50:45.258Z,0.5
2022-12-04T21:55:51.844Z,0.5
2022-12-04T22:00:58.433Z,0.5
2022-12-04T22:06:04.980Z,0.5
2022-12-04T22:11:11.564Z,0.6
2022-12-04T22:16:18.173Z,0.6
2022-12-04T22:21:24.700Z,0.6
2022-12-04T22:26:31.341Z,0.6
2022-12-04T22:31:37.157Z,0.7
2022-12-04T22:36:43.742Z,0.7
2022-12-04T22:41:49.596Z,0.7
2022-12-04T22:46:56.165Z,0.7
2022-12-04T22:52:02.735Z,0.8
2022-12-04T22:57:09.288Z,0.8
2022-12-04T23:02:15.865Z,0.8
2022-12-04T23:07:22.433Z,0.9
2022-12-04T23:12:29.024Z,0.9
2022-12-04T23:17:35.591Z,0.9
2022-12-04T23:22:42.165Z,0.9
2022-12-04T23:27:48.058Z,0.9
2022-12-04T23:32:54.618Z,1
2022-12-04T23:38:00.469Z,1
2022-12-04T23:43:07.044Z,1
2022-12-04T23:48:13.605Z,1
2022-12-04T23:53:20.189Z,1
2022-12-04T23:58:26.752Z,1
